createdAt,value
2022-12-04T00:00:25.532Z,3.10
2022-12-04T00:01:25.903Z,3.40
2022-12-04T00:02:26.249Z,3.00
2022-12-04T00:03:26.575Z,3.40
2022-12-04T00:04:26.844Z,3.10
2022-12-04T00:05:27.183Z,2.90
2022-12-04T00:06:27.525Z,3.40
2022-12-04T00:07:27.939Z,3.00
2022-12-04T00:08:28.235Z,3.30
2022-12-04T00:09:28.594Z,3.30
2022-12-04T00:10:28.934Z,3.40
2022-12-04T00:11:29.300Z,3.10
2022-12-04T00:12:29.637Z,3.20
2022-12-04T00:13:30.004Z,3.10
2022-12-04T00:14:30.337Z,3.30
2022-12-04T00:15:30.696Z,3.20
2022-12-04T00:16:31.110Z,3.50
2022-12-04T00:17:31.346Z,2.90
2022-12-04T00:18:31.675Z,3.20
2022-12-04T00:19:32.034Z,3.00
2022-12-04T00:20:32.367Z,3.70
2022-12-04T00:21:32.735Z,3.00
2022-12-04T00:22:33.068Z,3.10
2022-12-04T00:23:33.406Z,3.00
2022-12-04T00:24:33.779Z,3.20
2022-12-04T00:25:41.585Z,3.30
2022-12-04T00:26:34.287Z,3.00
2022-12-04T00:27:34.644Z,3.00
2022-12-04T00:28:34.978Z,2.90
2022-12-04T00:29:35.322Z,3.30
2022-12-04T00:30:35.656Z,3.20
2022-12-04T00:31:36.016Z,3.10
2022-12-04T00:32:36.257Z,3.10
2022-12-04T00:33:36.629Z,3.30
2022-12-04T00:34:36.968Z,3.20
2022-12-04T00:35:37.329Z,3.10
2022-12-04T00:36:37.667Z,3.10
2022-12-04T00:37:38.020Z,2.90
2022-12-04T00:38:38.359Z,3.20
2022-12-04T00:39:38.711Z,3.30
2022-12-04T00:40:39.051Z,3.20
2022-12-04T00:41:39.411Z,3.30
2022-12-04T00:42:39.749Z,3.40
2022-12-04T00:43:40.115Z,3.40
2022-12-04T00:44:40.452Z,3.20
2022-12-04T00:45:40.835Z,3.20
2022-12-04T00:46:41.052Z,3.20
2022-12-04T00:47:41.414Z,3.20
2022-12-04T00:48:41.753Z,3.20
2022-12-04T00:49:42.102Z,3.50
2022-12-04T00:50:42.444Z,3.00
2022-12-04T00:51:42.784Z,2.90
2022-12-04T00:52:43.124Z,3.30
2022-12-04T00:53:43.474Z,3.40
2022-12-04T00:54:43.822Z,3.00
2022-12-04T00:55:44.171Z,3.00
2022-12-04T00:56:44.505Z,3.30
2022-12-04T00:57:44.866Z,3.00
2022-12-04T00:58:45.196Z,2.80
2022-12-04T00:59:45.553Z,3.30
2022-12-04T01:00:45.905Z,3.00
2022-12-04T01:01:46.267Z,3.30
2022-12-04T01:02:46.675Z,3.10
2022-12-04T01:03:46.898Z,3.10
2022-12-04T01:04:47.227Z,3.00
2022-12-04T01:05:47.616Z,3.30
2022-12-04T01:06:47.978Z,3.20
2022-12-04T01:07:48.376Z,3.00
2022-12-04T01:08:48.590Z,3.50
2022-12-04T01:09:48.950Z,3.30
2022-12-04T01:10:49.281Z,2.90
2022-12-04T01:11:49.640Z,2.90
2022-12-04T01:12:49.971Z,3.20
2022-12-04T01:13:50.329Z,3.10
2022-12-04T01:14:50.658Z,3.20
2022-12-04T01:15:50.999Z,3.00
2022-12-04T01:16:51.381Z,3.10
2022-12-04T01:17:51.712Z,3.10
2022-12-04T01:18:52.041Z,3.20
2022-12-04T01:19:52.586Z,3.10
2022-12-04T01:20:52.717Z,3.20
2022-12-04T01:21:53.121Z,3.00
2022-12-04T01:22:53.422Z,3.00
2022-12-04T01:23:53.773Z,2.80
2022-12-04T01:24:54.155Z,3.00
2022-12-04T01:25:54.408Z,3.30
2022-12-04T01:26:54.737Z,2.90
2022-12-04T01:27:55.084Z,3.10
2022-12-04T01:28:55.417Z,3.00
2022-12-04T01:29:55.961Z,2.70
2022-12-04T01:30:56.035Z,3.10
2022-12-04T01:31:56.465Z,3.10
2022-12-04T01:32:56.665Z,3.20
2022-12-04T01:33:57.017Z,3.20
2022-12-04T01:34:57.347Z,3.00
2022-12-04T01:35:57.695Z,3.40
2022-12-04T01:36:58.035Z,2.90
2022-12-04T01:37:58.377Z,3.10
2022-12-04T01:38:58.715Z,2.90
2022-12-04T01:39:59.080Z,3.20
2022-12-04T01:40:59.408Z,3.20
2022-12-04T01:41:59.765Z,3.20
2022-12-04T01:43:00.097Z,3.10
2022-12-04T01:44:00.448Z,2.90
2022-12-04T01:45:00.779Z,2.90
2022-12-04T01:46:01.220Z,3.40
2022-12-04T01:47:01.418Z,3.00
2022-12-04T01:48:01.780Z,3.20
2022-12-04T01:49:09.130Z,3.10
2022-12-04T01:50:02.460Z,3.30
2022-12-04T01:51:02.792Z,3.30
2022-12-04T01:52:03.162Z,2.80
2022-12-04T01:53:03.483Z,3.20
2022-12-04T01:54:03.879Z,3.10
2022-12-04T01:55:04.211Z,3.10
2022-12-04T01:56:04.563Z,3.10
2022-12-04T01:57:04.902Z,3.40
2022-12-04T01:58:05.262Z,3.30
2022-12-04T01:59:05.606Z,3.30
2022-12-04T02:00:05.969Z,3.40
2022-12-04T02:01:08.875Z,3.10
2022-12-04T02:02:06.773Z,3.40
2022-12-04T02:03:07.021Z,3.20
2022-12-04T02:04:07.268Z,3.00
2022-12-04T02:05:07.594Z,3.10
2022-12-04T02:06:07.986Z,3.00
2022-12-04T02:07:08.282Z,3.00
2022-12-04T02:08:08.705Z,3.00
2022-12-04T02:09:08.918Z,3.20
2022-12-04T02:10:09.275Z,3.10
2022-12-04T02:11:09.596Z,3.20
2022-12-04T02:12:09.934Z,3.10
2022-12-04T02:13:10.269Z,3.10
2022-12-04T02:14:10.620Z,3.20
2022-12-04T02:15:10.948Z,3.20
2022-12-04T02:16:11.331Z,3.10
2022-12-04T02:17:11.569Z,3.20
2022-12-04T02:18:11.947Z,2.80
2022-12-04T02:19:12.200Z,3.20
2022-12-04T02:20:12.539Z,3.30
2022-12-04T02:21:12.871Z,3.20
2022-12-04T02:22:13.231Z,3.20
2022-12-04T02:23:13.561Z,3.40
2022-12-04T02:24:13.923Z,3.30
2022-12-04T02:25:14.251Z,3.30
2022-12-04T02:26:14.581Z,3.10
2022-12-04T02:27:14.912Z,3.20
2022-12-04T02:28:15.270Z,3.20
2022-12-04T02:29:15.610Z,2.90
2022-12-04T02:30:15.972Z,2.90
2022-12-04T02:31:16.358Z,2.90
2022-12-04T02:32:16.621Z,3.20
2022-12-04T02:33:16.953Z,3.20
2022-12-04T02:34:17.318Z,3.20
2022-12-04T02:35:17.656Z,3.30
2022-12-04T02:36:18.014Z,3.00
2022-12-04T02:37:18.366Z,3.10
2022-12-04T02:38:18.705Z,3.00
2022-12-04T02:39:19.046Z,2.80
2022-12-04T02:40:19.416Z,3.20
2022-12-04T02:41:19.754Z,3.20
2022-12-04T02:42:20.115Z,3.00
2022-12-04T02:43:20.454Z,3.50
2022-12-04T02:44:20.818Z,3.10
2022-12-04T02:45:21.157Z,3.00
2022-12-04T02:46:21.585Z,3.00
2022-12-04T02:47:21.807Z,3.20
2022-12-04T02:48:22.167Z,2.90
2022-12-04T02:49:22.509Z,3.10
2022-12-04T02:50:22.868Z,3.40
2022-12-04T02:51:23.219Z,3.00
2022-12-04T02:52:23.569Z,3.10
2022-12-04T02:53:23.918Z,3.20
2022-12-04T02:54:24.278Z,3.30
2022-12-04T02:55:24.619Z,3.20
2022-12-04T02:56:24.980Z,3.00
2022-12-04T02:57:25.360Z,3.50
2022-12-04T02:58:25.608Z,3.10
2022-12-04T02:59:25.941Z,3.10
2022-12-04T03:00:26.292Z,3.30
2022-12-04T03:01:26.692Z,3.20
2022-12-04T03:02:27.074Z,3.20
2022-12-04T03:03:27.336Z,3.20
2022-12-04T03:04:27.684Z,3.50
2022-12-04T03:05:28.030Z,2.90
2022-12-04T03:06:28.391Z,3.30
2022-12-04T03:07:28.786Z,3.00
2022-12-04T03:08:29.020Z,3.10
2022-12-04T03:09:29.355Z,3.10
2022-12-04T03:10:29.724Z,3.40
2022-12-04T03:11:30.054Z,3.00
2022-12-04T03:12:30.424Z,2.90
2022-12-04T03:13:30.763Z,3.20
2022-12-04T03:14:31.126Z,3.00
2022-12-04T03:15:31.499Z,3.20
2022-12-04T03:16:31.867Z,3.40
2022-12-04T03:17:32.136Z,3.30
2022-12-04T03:18:32.478Z,3.10
2022-12-04T03:19:32.837Z,3.20
2022-12-04T03:20:33.177Z,2.90
2022-12-04T03:21:33.585Z,3.10
2022-12-04T03:22:33.798Z,2.90
2022-12-04T03:23:34.166Z,3.10
2022-12-04T03:24:34.499Z,3.10
2022-12-04T03:25:34.939Z,3.20
2022-12-04T03:26:35.196Z,3.10
2022-12-04T03:27:35.515Z,3.20
2022-12-04T03:28:35.859Z,2.80
2022-12-04T03:29:36.196Z,2.90
2022-12-04T03:30:36.576Z,3.20
2022-12-04T03:31:36.820Z,3.10
2022-12-04T03:32:37.168Z,3.10
2022-12-04T03:33:37.522Z,3.30
2022-12-04T03:34:37.851Z,3.20
2022-12-04T03:35:38.201Z,3.00
2022-12-04T03:36:38.531Z,2.90
2022-12-04T03:37:38.882Z,3.00
2022-12-04T03:38:39.211Z,2.90
2022-12-04T03:39:39.581Z,3.30
2022-12-04T03:40:39.902Z,2.70
2022-12-04T03:41:43.767Z,3.10
2022-12-04T03:42:41.594Z,2.80
2022-12-04T03:43:40.893Z,2.80
2022-12-04T03:44:41.226Z,3.10
2022-12-04T03:45:41.625Z,3.10
2022-12-04T03:46:41.841Z,3.10
2022-12-04T03:47:42.195Z,3.20
2022-12-04T03:48:42.530Z,2.80
2022-12-04T03:49:42.883Z,3.00
2022-12-04T03:50:43.226Z,2.90
2022-12-04T03:51:43.583Z,2.90
2022-12-04T03:52:43.916Z,2.90
2022-12-04T03:53:44.277Z,3.00
2022-12-04T03:54:44.621Z,3.00
2022-12-04T03:55:44.958Z,2.80
2022-12-04T03:56:45.286Z,2.90
2022-12-04T03:57:45.657Z,3.00
2022-12-04T03:58:45.991Z,3.00
2022-12-04T03:59:48.013Z,2.70
2022-12-04T04:00:46.610Z,2.80
2022-12-04T04:01:47.016Z,3.10
2022-12-04T04:02:47.240Z,2.70
2022-12-04T04:03:47.601Z,3.00
2022-12-04T04:04:47.929Z,2.80
2022-12-04T04:05:48.279Z,3.30
2022-12-04T04:06:48.610Z,3.30
2022-12-04T04:07:49.048Z,2.80
2022-12-04T04:08:49.261Z,2.80
2022-12-04T04:09:49.628Z,2.80
2022-12-04T04:10:49.966Z,3.20
2022-12-04T04:11:50.322Z,3.00
2022-12-04T04:12:50.652Z,2.80
2022-12-04T04:13:51.013Z,2.90
2022-12-04T04:14:51.333Z,3.10
2022-12-04T04:15:51.765Z,2.90
2022-12-04T04:16:51.976Z,3.00
2022-12-04T04:17:52.336Z,3.30
2022-12-04T04:18:59.681Z,3.20
2022-12-04T04:19:53.532Z,2.90
2022-12-04T04:20:53.353Z,3.10
2022-12-04T04:21:53.713Z,3.10
2022-12-04T04:22:56.126Z,3.10
2022-12-04T04:23:54.325Z,2.70
2022-12-04T04:24:54.654Z,3.10
2022-12-04T04:25:55.011Z,3.10
2022-12-04T04:26:55.344Z,2.90
2022-12-04T04:27:55.697Z,3.00
2022-12-04T04:28:56.026Z,3.00
2022-12-04T04:29:56.586Z,2.80
2022-12-04T04:30:56.725Z,3.40
2022-12-04T04:31:56.947Z,3.10
2022-12-04T04:32:57.286Z,2.90
2022-12-04T04:33:57.645Z,2.90
2022-12-04T04:34:57.977Z,2.90
2022-12-04T04:35:58.335Z,3.00
2022-12-04T04:36:58.668Z,3.10
2022-12-04T04:37:59.038Z,3.00
2022-12-04T04:38:59.379Z,3.10
2022-12-04T04:39:59.738Z,3.40
2022-12-04T04:41:00.078Z,3.10
2022-12-04T04:42:00.445Z,3.20
2022-12-04T04:43:00.779Z,3.10
2022-12-04T04:44:01.144Z,3.00
2022-12-04T04:45:01.480Z,3.10
2022-12-04T04:46:01.927Z,3.20
2022-12-04T04:47:02.131Z,2.90
2022-12-04T04:48:02.502Z,3.10
2022-12-04T04:49:02.834Z,3.00
2022-12-04T04:50:03.201Z,2.90
2022-12-04T04:51:03.532Z,3.00
2022-12-04T04:52:03.901Z,3.00
2022-12-04T04:53:04.250Z,2.90
2022-12-04T04:54:04.622Z,3.20
2022-12-04T04:55:04.953Z,3.00
2022-12-04T04:56:05.293Z,3.30
2022-12-04T04:57:05.633Z,2.80
2022-12-04T04:58:05.984Z,2.90
2022-12-04T04:59:06.323Z,3.10
2022-12-04T05:00:06.691Z,3.00
2022-12-04T05:01:07.035Z,2.90
2022-12-04T05:02:07.507Z,3.20
2022-12-04T05:03:07.822Z,3.00
2022-12-04T05:04:08.025Z,3.10
2022-12-04T05:05:08.375Z,2.90
2022-12-04T05:06:08.726Z,3.00
2022-12-04T05:07:09.067Z,2.90
2022-12-04T05:08:09.535Z,3.20
2022-12-04T05:09:09.649Z,2.90
2022-12-04T05:10:10.018Z,3.00
2022-12-04T05:11:10.358Z,3.00
2022-12-04T05:12:10.718Z,3.00
2022-12-04T05:13:11.198Z,3.10
2022-12-04T05:14:11.395Z,3.10
2022-12-04T05:15:11.739Z,3.00
2022-12-04T05:16:12.120Z,2.90
2022-12-04T05:17:13.037Z,3.00
2022-12-04T05:18:12.699Z,2.70
2022-12-04T05:19:20.066Z,2.90
2022-12-04T05:20:13.410Z,3.10
2022-12-04T05:21:13.806Z,2.90
2022-12-04T05:22:14.136Z,3.20
2022-12-04T05:23:14.487Z,3.20
2022-12-04T05:24:14.847Z,3.00
2022-12-04T05:25:15.177Z,3.30
2022-12-04T05:26:15.519Z,2.80
2022-12-04T05:27:15.862Z,2.90
2022-12-04T05:28:16.233Z,3.00
2022-12-04T05:29:16.569Z,2.90
2022-12-04T05:30:16.936Z,3.10
2022-12-04T05:31:17.366Z,2.80
2022-12-04T05:32:17.569Z,2.80
2022-12-04T05:33:17.922Z,3.00
2022-12-04T05:34:18.291Z,2.90
2022-12-04T05:35:18.633Z,2.70
2022-12-04T05:36:18.991Z,3.00
2022-12-04T05:37:19.331Z,2.90
2022-12-04T05:38:19.692Z,3.10
2022-12-04T05:39:20.034Z,2.70
2022-12-04T05:40:20.393Z,2.90
2022-12-04T05:41:20.731Z,2.80
2022-12-04T05:42:21.072Z,3.20
2022-12-04T05:43:21.415Z,2.80
2022-12-04T05:44:21.820Z,2.70
2022-12-04T05:45:22.111Z,2.80
2022-12-04T05:46:29.558Z,2.70
2022-12-04T05:47:22.788Z,3.10
2022-12-04T05:48:23.147Z,3.00
2022-12-04T05:49:23.486Z,2.60
2022-12-04T05:50:23.827Z,2.70
2022-12-04T05:51:24.167Z,2.80
2022-12-04T05:52:24.528Z,2.70
2022-12-04T05:53:24.868Z,2.80
2022-12-04T05:54:25.229Z,2.90
2022-12-04T05:55:25.571Z,2.90
2022-12-04T05:56:25.919Z,3.10
2022-12-04T05:57:29.749Z,3.00
2022-12-04T05:58:26.642Z,2.40
2022-12-04T05:59:26.860Z,2.80
2022-12-04T06:00:27.218Z,2.50
2022-12-04T06:01:27.549Z,3.10
2022-12-04T06:02:27.952Z,2.60
2022-12-04T06:03:28.308Z,2.90
2022-12-04T06:04:28.552Z,2.90
2022-12-04T06:05:28.896Z,2.70
2022-12-04T06:06:29.255Z,2.90
2022-12-04T06:07:29.622Z,2.90
2022-12-04T06:08:30.002Z,2.60
2022-12-04T06:09:30.340Z,2.80
2022-12-04T06:10:30.694Z,2.60
2022-12-04T06:11:31.033Z,2.60
2022-12-04T06:12:31.373Z,2.60
2022-12-04T06:13:31.705Z,2.60
2022-12-04T06:14:37.743Z,2.80
2022-12-04T06:15:33.400Z,2.80
2022-12-04T06:16:32.729Z,2.80
2022-12-04T06:17:33.046Z,2.70
2022-12-04T06:18:33.411Z,2.70
2022-12-04T06:19:33.746Z,3.00
2022-12-04T06:20:34.151Z,2.70
2022-12-04T06:21:34.378Z,2.40
2022-12-04T06:22:34.735Z,2.80
2022-12-04T06:23:35.078Z,2.60
2022-12-04T06:24:35.439Z,2.50
2022-12-04T06:25:35.779Z,2.90
2022-12-04T06:26:36.138Z,2.60
2022-12-04T06:27:36.508Z,2.40
2022-12-04T06:28:44.281Z,2.60
2022-12-04T06:29:37.135Z,2.60
2022-12-04T06:30:37.492Z,2.70
2022-12-04T06:31:37.884Z,2.60
2022-12-04T06:32:38.241Z,2.60
2022-12-04T06:33:38.594Z,2.60
2022-12-04T06:34:38.962Z,2.70
2022-12-04T06:35:39.322Z,2.60
2022-12-04T06:36:39.696Z,2.30
2022-12-04T06:37:40.042Z,2.60
2022-12-04T06:38:40.403Z,2.70
2022-12-04T06:39:40.735Z,2.50
2022-12-04T06:40:41.095Z,2.30
2022-12-04T06:41:41.435Z,2.30
2022-12-04T06:42:41.795Z,2.40
2022-12-04T06:43:42.135Z,2.60
2022-12-04T06:44:42.566Z,2.40
2022-12-04T06:45:42.901Z,2.60
2022-12-04T06:46:46.758Z,2.80
2022-12-04T06:47:43.599Z,2.60
2022-12-04T06:48:43.949Z,2.60
2022-12-04T06:49:44.274Z,2.80
2022-12-04T06:50:44.634Z,2.80
2022-12-04T06:51:45.028Z,2.70
2022-12-04T06:52:45.285Z,2.30
2022-12-04T06:53:45.628Z,2.70
2022-12-04T06:54:46.006Z,2.40
2022-12-04T06:55:46.358Z,2.50
2022-12-04T06:56:46.719Z,2.40
2022-12-04T06:57:46.980Z,2.70
2022-12-04T06:58:47.369Z,2.70
2022-12-04T06:59:47.609Z,2.70
2022-12-04T07:00:48.037Z,2.40
2022-12-04T07:01:48.300Z,2.60
2022-12-04T07:02:48.657Z,2.30
2022-12-04T07:03:51.607Z,2.40
2022-12-04T07:04:49.278Z,2.80
2022-12-04T07:05:49.631Z,2.30
2022-12-04T07:06:50.014Z,2.50
2022-12-04T07:07:50.421Z,2.60
2022-12-04T07:08:50.684Z,2.50
2022-12-04T07:09:50.928Z,2.70
2022-12-04T07:10:55.886Z,2.60
2022-12-04T07:11:52.635Z,2.20
2022-12-04T07:12:51.944Z,2.80
2022-12-04T07:13:52.316Z,2.60
2022-12-04T07:14:52.695Z,2.30
2022-12-04T07:15:53.044Z,2.50
2022-12-04T07:16:53.496Z,2.50
2022-12-04T07:17:53.733Z,2.60
2022-12-04T07:18:54.154Z,2.40
2022-12-04T07:19:54.775Z,2.30
2022-12-04T07:20:54.782Z,2.30
2022-12-04T07:21:55.145Z,2.30
2022-12-04T07:22:55.525Z,2.70
2022-12-04T07:23:55.886Z,2.50
2022-12-04T07:24:56.246Z,2.60
2022-12-04T07:25:56.628Z,2.50
2022-12-04T07:26:56.986Z,2.60
2022-12-04T07:27:57.367Z,2.30
2022-12-04T07:28:57.734Z,2.40
2022-12-04T07:29:58.232Z,2.50
2022-12-04T07:30:58.388Z,2.40
2022-12-04T07:31:58.806Z,2.70
2022-12-04T07:32:59.041Z,2.50
2022-12-04T07:33:59.428Z,2.40
2022-12-04T07:34:59.662Z,2.30
2022-12-04T07:36:00.039Z,2.80
2022-12-04T07:37:00.400Z,2.70
2022-12-04T07:38:00.792Z,2.50
2022-12-04T07:39:01.164Z,2.60
2022-12-04T07:40:01.553Z,2.30
2022-12-04T07:41:01.803Z,2.40
2022-12-04T07:42:02.208Z,2.10
2022-12-04T07:43:02.452Z,2.00
2022-12-04T07:44:02.857Z,2.40
2022-12-04T07:45:03.103Z,2.50
2022-12-04T07:46:03.562Z,2.40
2022-12-04T07:47:03.803Z,2.60
2022-12-04T07:48:04.192Z,2.50
2022-12-04T07:49:04.555Z,2.50
2022-12-04T07:50:04.924Z,2.60
2022-12-04T07:51:05.280Z,2.40
2022-12-04T07:52:05.643Z,2.30
2022-12-04T07:53:05.996Z,2.20
2022-12-04T07:54:06.387Z,2.40
2022-12-04T07:55:06.624Z,2.40
2022-12-04T07:56:07.006Z,2.10
2022-12-04T07:57:07.376Z,2.10
2022-12-04T07:58:07.767Z,2.40
2022-12-04T07:59:08.017Z,2.50
2022-12-04T08:00:08.399Z,2.40
2022-12-04T08:01:08.736Z,2.30
2022-12-04T08:02:08.955Z,2.20
2022-12-04T08:03:09.209Z,2.20
2022-12-04T08:04:09.629Z,2.50
2022-12-04T08:05:09.828Z,2.30
2022-12-04T08:06:10.209Z,2.40
2022-12-04T08:07:10.557Z,2.10
2022-12-04T08:08:11.019Z,2.20
2022-12-04T08:09:11.283Z,2.40
2022-12-04T08:10:11.670Z,2.20
2022-12-04T08:11:12.020Z,2.20
2022-12-04T08:12:12.424Z,2.30
2022-12-04T08:13:12.701Z,1.90
2022-12-04T08:14:13.081Z,2.00
2022-12-04T08:15:13.321Z,2.10
2022-12-04T08:16:13.928Z,2.30
2022-12-04T08:17:14.039Z,2.30
2022-12-04T08:18:14.271Z,2.40
2022-12-04T08:19:14.523Z,2.40
2022-12-04T08:20:14.923Z,2.20
2022-12-04T08:21:15.173Z,2.00
2022-12-04T08:22:18.069Z,2.00
2022-12-04T08:23:16.912Z,2.10
2022-12-04T08:24:16.241Z,2.40
2022-12-04T08:25:16.474Z,2.10
2022-12-04T08:26:16.855Z,2.10
2022-12-04T08:27:17.214Z,2.00
2022-12-04T08:28:17.605Z,2.20
2022-12-04T08:29:17.856Z,2.10
2022-12-04T08:30:18.256Z,2.30
2022-12-04T08:31:18.672Z,1.90
2022-12-04T08:32:18.979Z,1.90
2022-12-04T08:33:19.225Z,2.20
2022-12-04T08:34:19.627Z,2.20
2022-12-04T08:35:19.877Z,2.10
2022-12-04T08:36:20.298Z,2.10
2022-12-04T08:37:20.549Z,2.40
2022-12-04T08:38:20.948Z,2.20
2022-12-04T08:39:21.228Z,2.50
2022-12-04T08:40:21.498Z,2.10
2022-12-04T08:41:21.759Z,2.30
2022-12-04T08:42:22.149Z,2.20
2022-12-04T08:43:22.413Z,2.30
2022-12-04T08:44:22.790Z,2.20
2022-12-04T08:45:23.020Z,2.10
2022-12-04T08:46:23.498Z,2.10
2022-12-04T08:47:23.734Z,2.10
2022-12-04T08:48:24.112Z,2.30
2022-12-04T08:49:24.370Z,2.20
2022-12-04T08:50:24.770Z,2.20
2022-12-04T08:51:25.019Z,2.00
2022-12-04T08:52:25.409Z,2.20
2022-12-04T08:53:25.665Z,2.10
2022-12-04T08:54:26.053Z,2.10
2022-12-04T08:55:26.324Z,2.10
2022-12-04T08:56:26.722Z,2.10
2022-12-04T08:57:26.964Z,2.10
2022-12-04T08:58:27.354Z,2.30
2022-12-04T08:59:27.618Z,2.10
2022-12-04T09:00:28.036Z,2.50
2022-12-04T09:01:28.284Z,2.20
2022-12-04T09:02:28.526Z,2.20
2022-12-04T09:03:31.040Z,1.90
2022-12-04T09:04:29.299Z,2.10
2022-12-04T09:05:29.506Z,2.20
2022-12-04T09:06:29.889Z,2.20
2022-12-04T09:07:30.286Z,2.20
2022-12-04T09:08:30.665Z,1.90
2022-12-04T09:09:30.918Z,2.10
2022-12-04T09:10:31.305Z,1.90
2022-12-04T09:11:31.658Z,2.00
2022-12-04T09:12:32.077Z,2.40
2022-12-04T09:13:32.396Z,2.10
2022-12-04T09:14:32.780Z,1.90
2022-12-04T09:15:33.045Z,2.00
2022-12-04T09:16:33.390Z,2.20
2022-12-04T09:17:33.620Z,2.20
2022-12-04T09:18:34.000Z,2.00
2022-12-04T09:19:34.355Z,2.00
2022-12-04T09:20:34.835Z,2.00
2022-12-04T09:21:35.040Z,2.10
2022-12-04T09:22:51.675Z,2.20
2022-12-04T09:23:36.772Z,2.00
2022-12-04T09:24:36.107Z,2.20
2022-12-04T09:25:36.363Z,2.10
2022-12-04T09:26:36.748Z,2.00
2022-12-04T09:27:37.123Z,1.90
2022-12-04T09:28:44.512Z,2.10
2022-12-04T09:29:37.852Z,2.20
2022-12-04T09:30:38.285Z,1.90
2022-12-04T09:31:38.577Z,1.90
2022-12-04T09:32:38.824Z,2.00
2022-12-04T09:33:39.064Z,2.00
2022-12-04T09:34:39.444Z,2.30
2022-12-04T09:35:39.812Z,2.00
2022-12-04T09:36:40.197Z,2.20
2022-12-04T09:37:40.545Z,2.30
2022-12-04T09:38:40.916Z,1.90
2022-12-04T09:39:41.275Z,2.40
2022-12-04T09:40:41.656Z,2.30
2022-12-04T09:41:42.017Z,2.10
2022-12-04T09:42:42.394Z,2.20
2022-12-04T09:43:42.745Z,2.00
2022-12-04T09:44:43.176Z,2.10
2022-12-04T09:45:43.375Z,1.80
2022-12-04T09:46:44.458Z,2.00
2022-12-04T09:47:44.067Z,1.90
2022-12-04T09:48:44.461Z,1.90
2022-12-04T09:49:44.698Z,2.00
2022-12-04T09:50:45.059Z,2.00
2022-12-04T09:51:45.437Z,2.10
2022-12-04T09:52:45.810Z,2.00
2022-12-04T09:53:46.159Z,1.80
2022-12-04T09:54:46.540Z,2.30
2022-12-04T09:55:46.891Z,2.00
2022-12-04T09:56:47.270Z,1.80
2022-12-04T09:57:47.611Z,1.80
2022-12-04T09:58:47.980Z,2.00
2022-12-04T09:59:48.331Z,2.00
2022-12-04T10:00:48.709Z,2.20
2022-12-04T10:01:49.049Z,2.10
2022-12-04T10:02:49.631Z,2.00
2022-12-04T10:03:49.823Z,1.80
2022-12-04T10:04:50.104Z,2.20
2022-12-04T10:05:50.462Z,2.10
2022-12-04T10:06:50.840Z,2.10
2022-12-04T10:07:51.136Z,1.90
2022-12-04T10:08:51.474Z,2.00
2022-12-04T10:09:51.865Z,2.10
2022-12-04T10:10:52.125Z,2.10
2022-12-04T10:11:52.485Z,1.90
2022-12-04T10:12:52.855Z,2.10
2022-12-04T10:13:53.202Z,1.90
2022-12-04T10:14:53.583Z,2.30
2022-12-04T10:15:53.971Z,2.00
2022-12-04T10:16:54.216Z,2.00
2022-12-04T10:17:54.560Z,1.80
2022-12-04T10:18:54.936Z,1.80
2022-12-04T10:19:55.545Z,1.90
2022-12-04T10:20:55.676Z,2.00
2022-12-04T10:21:56.027Z,1.80
2022-12-04T10:22:56.398Z,2.10
2022-12-04T10:23:56.748Z,1.90
2022-12-04T10:24:57.135Z,2.00
2022-12-04T10:25:57.380Z,1.80
2022-12-04T10:26:57.749Z,2.00
2022-12-04T10:27:58.109Z,2.00
2022-12-04T10:28:58.480Z,2.00
2022-12-04T10:29:59.242Z,1.80
2022-12-04T10:30:59.150Z,2.00
2022-12-04T10:31:59.491Z,1.90
2022-12-04T10:32:59.869Z,2.00
2022-12-04T10:34:00.227Z,2.10
2022-12-04T10:35:00.591Z,2.00
2022-12-04T10:36:00.942Z,1.80
2022-12-04T10:37:01.318Z,1.80
2022-12-04T10:38:01.651Z,2.00
2022-12-04T10:39:02.030Z,2.00
2022-12-04T10:40:02.383Z,1.70
2022-12-04T10:41:02.767Z,2.00
2022-12-04T10:42:03.113Z,1.80
2022-12-04T10:43:03.484Z,2.10
2022-12-04T10:44:03.852Z,1.90
2022-12-04T10:45:04.226Z,1.80
2022-12-04T10:46:04.603Z,2.10
2022-12-04T10:47:05.039Z,1.90
2022-12-04T10:48:05.236Z,2.00
2022-12-04T10:49:05.608Z,1.70
2022-12-04T10:50:05.967Z,2.00
2022-12-04T10:51:06.335Z,1.80
2022-12-04T10:52:06.676Z,1.90
2022-12-04T10:53:12.214Z,2.00
2022-12-04T10:54:08.377Z,2.00
2022-12-04T10:55:07.697Z,1.80
2022-12-04T10:56:08.027Z,1.90
2022-12-04T10:57:08.404Z,2.00
2022-12-04T10:58:08.757Z,1.90
2022-12-04T10:59:09.097Z,2.00
2022-12-04T11:00:09.448Z,1.80
2022-12-04T11:01:09.836Z,1.90
2022-12-04T11:02:10.186Z,1.90
2022-12-04T11:03:10.478Z,1.90
2022-12-04T11:04:10.700Z,1.90
2022-12-04T11:05:11.070Z,2.10
2022-12-04T11:06:11.438Z,1.90
2022-12-04T11:07:11.801Z,1.90
2022-12-04T11:08:15.618Z,1.90
2022-12-04T11:09:13.511Z,2.00
2022-12-04T11:10:12.792Z,1.90
2022-12-04T11:11:13.184Z,1.90
2022-12-04T11:12:13.502Z,2.00
2022-12-04T11:13:13.870Z,2.00
2022-12-04T11:14:14.213Z,2.10
2022-12-04T11:15:14.582Z,1.90
2022-12-04T11:16:14.972Z,2.00
2022-12-04T11:17:15.238Z,2.00
2022-12-04T11:18:15.464Z,1.80
2022-12-04T11:19:16.066Z,2.00
2022-12-04T11:20:16.133Z,1.90
2022-12-04T11:21:16.484Z,2.00
2022-12-04T11:22:16.833Z,1.90
2022-12-04T11:23:17.205Z,1.80
2022-12-04T11:24:17.555Z,1.90
2022-12-04T11:25:17.944Z,1.70
2022-12-04T11:26:18.176Z,1.70
2022-12-04T11:27:18.556Z,2.00
2022-12-04T11:28:39.765Z,1.90
2022-12-04T11:29:20.278Z,2.00
2022-12-04T11:30:19.567Z,2.10
2022-12-04T11:31:20.114Z,2.00
2022-12-04T11:32:20.303Z,1.80
2022-12-04T11:33:20.688Z,1.80
2022-12-04T11:34:20.927Z,1.80
2022-12-04T11:35:21.317Z,2.00
2022-12-04T11:36:21.678Z,1.90
2022-12-04T11:37:22.060Z,2.00
2022-12-04T11:38:22.409Z,1.90
2022-12-04T11:39:22.831Z,2.00
2022-12-04T11:40:23.080Z,1.80
2022-12-04T11:41:23.321Z,1.70
2022-12-04T11:42:23.697Z,1.90
2022-12-04T11:43:24.051Z,2.00
2022-12-04T11:44:24.420Z,1.90
2022-12-04T11:45:24.781Z,1.90
2022-12-04T11:46:25.225Z,1.90
2022-12-04T11:47:25.422Z,1.90
2022-12-04T11:48:25.789Z,1.70
2022-12-04T11:49:26.132Z,2.20
2022-12-04T11:50:26.514Z,2.10
2022-12-04T11:51:26.881Z,2.00
2022-12-04T11:52:27.260Z,2.30
2022-12-04T11:53:27.615Z,1.90
2022-12-04T11:54:28.006Z,2.00
2022-12-04T11:55:29.289Z,2.00
2022-12-04T11:56:28.565Z,1.80
2022-12-04T11:57:28.805Z,2.20
2022-12-04T11:58:29.198Z,1.90
2022-12-04T11:59:29.425Z,1.70
2022-12-04T12:00:29.814Z,1.80
2022-12-04T12:01:30.166Z,1.90
2022-12-04T12:02:30.722Z,2.00
2022-12-04T12:03:30.952Z,1.80
2022-12-04T12:04:31.246Z,1.90
2022-12-04T12:05:31.587Z,2.20
2022-12-04T12:06:31.967Z,1.80
2022-12-04T12:07:32.399Z,2.10
2022-12-04T12:08:32.654Z,1.60
2022-12-04T12:09:33.008Z,1.90
2022-12-04T12:10:44.661Z,2.00
2022-12-04T12:11:33.694Z,1.90
2022-12-04T12:12:34.076Z,1.90
2022-12-04T12:13:34.434Z,1.90
2022-12-04T12:14:34.807Z,1.80
2022-12-04T12:15:35.224Z,1.90
2022-12-04T12:16:35.629Z,2.10
2022-12-04T12:17:35.899Z,2.00
2022-12-04T12:18:36.307Z,1.90
2022-12-04T12:19:36.659Z,1.70
2022-12-04T12:20:37.038Z,2.10
2022-12-04T12:21:37.278Z,1.80
2022-12-04T12:22:44.678Z,2.00
2022-12-04T12:23:37.997Z,1.90
2022-12-04T12:24:40.193Z,1.80
2022-12-04T12:25:38.700Z,1.80
2022-12-04T12:26:39.090Z,1.70
2022-12-04T12:27:39.319Z,1.80
2022-12-04T12:28:39.690Z,1.80
2022-12-04T12:29:40.038Z,1.80
2022-12-04T12:30:40.417Z,1.80
2022-12-04T12:31:40.804Z,1.90
2022-12-04T12:32:41.052Z,1.80
2022-12-04T12:33:41.292Z,1.80
2022-12-04T12:34:41.670Z,1.90
2022-12-04T12:35:42.028Z,1.70
2022-12-04T12:36:43.854Z,1.80
2022-12-04T12:37:42.722Z,1.90
2022-12-04T12:38:43.092Z,1.90
2022-12-04T12:39:43.457Z,1.60
2022-12-04T12:40:43.847Z,1.90
2022-12-04T12:41:44.073Z,1.90
2022-12-04T12:42:44.506Z,1.80
2022-12-04T12:43:44.797Z,1.80
2022-12-04T12:44:45.066Z,1.90
2022-12-04T12:45:45.484Z,1.90
2022-12-04T12:46:45.734Z,1.60
2022-12-04T12:47:45.975Z,1.80
2022-12-04T12:48:46.356Z,1.60
2022-12-04T12:49:46.594Z,1.90
2022-12-04T12:50:54.726Z,2.20
2022-12-04T12:51:48.350Z,1.90
2022-12-04T12:52:47.656Z,1.70
2022-12-04T12:53:48.017Z,1.90
2022-12-04T12:54:48.368Z,1.90
2022-12-04T12:55:48.727Z,1.80
2022-12-04T12:56:49.900Z,2.10
2022-12-04T12:57:49.347Z,2.20
2022-12-04T12:58:49.724Z,1.80
2022-12-04T12:59:50.079Z,1.80
2022-12-04T13:00:50.511Z,1.70
2022-12-04T13:01:52.795Z,1.70
2022-12-04T13:02:52.129Z,1.80
2022-12-04T13:03:51.440Z,1.90
2022-12-04T13:04:51.820Z,1.90
2022-12-04T13:05:52.078Z,1.70
2022-12-04T13:06:52.452Z,1.80
2022-12-04T13:07:52.866Z,1.90
2022-12-04T13:08:53.092Z,1.80
2022-12-04T13:09:53.806Z,1.90
2022-12-04T13:10:53.752Z,1.90
2022-12-04T13:11:54.112Z,1.70
2022-12-04T13:12:54.494Z,1.80
2022-12-04T13:13:54.842Z,1.80
2022-12-04T13:14:55.223Z,2.00
2022-12-04T13:15:55.581Z,1.80
2022-12-04T13:16:56.049Z,1.90
2022-12-04T13:17:56.293Z,2.00
2022-12-04T13:18:56.664Z,1.70
2022-12-04T13:19:57.416Z,1.80
2022-12-04T13:20:57.315Z,1.90
2022-12-04T13:21:57.665Z,1.70
2022-12-04T13:22:58.045Z,1.90